createdAt,value
2022-10-15T00:03:08.411Z,96680.97
2022-10-15T00:08:11.693Z,96673.81
2022-10-15T00:13:13.440Z,96675.25
2022-10-15T00:18:15.138Z,96673.81
2022-10-15T00:23:16.809Z,96663.41
2022-10-15T00:28:18.538Z,96665.97
2022-10-15T00:33:22.557Z,96654.63
2022-10-15T00:38:24.369Z,96647.50
2022-10-15T00:43:47.705Z,96638.09
2022-10-15T00:48:54.591Z,96641.97
2022-10-15T00:53:56.714Z,96636.47
2022-10-15T00:59:00.225Z,96626.56
2022-10-15T01:04:04.577Z,96621.38
2022-10-15T01:09:06.645Z,96615.03
2022-10-15T01:14:16.407Z,96607.91
2022-10-15T01:19:46.102Z,96601.34
2022-10-15T01:25:10.870Z,96595.53
2022-10-15T01:30:16.586Z,96583.81
2022-10-15T01:35:21.129Z,96586.56
2022-10-15T01:40:34.211Z,96577.16
2022-10-15T01:45:41.788Z,96572.78
2022-10-15T01:50:59.750Z,96571.03
2022-10-15T01:56:09.754Z,96559.53
2022-10-15T02:01:12.368Z,96561.97
2022-10-15T02:06:23.906Z,96556.13
2022-10-15T02:11:27.368Z,96542.84
2022-10-15T02:16:43.978Z,96540.47
2022-10-15T02:21:56.215Z,96540.47
2022-10-15T02:27:01.035Z,96534.34
2022-10-15T02:32:06.130Z,96532.69
2022-10-15T02:37:08.889Z,96519.41
2022-10-15T02:42:11.053Z,96517.66
2022-10-15T02:47:13.027Z,96512.66
2022-10-15T02:52:15.671Z,96519.31
2022-10-15T02:57:17.588Z,96507.97
2022-10-15T03:02:20.766Z,96518.69
2022-10-15T03:07:23.323Z,96508.13
2022-10-15T03:12:26.010Z,96508.13
2022-10-15T03:17:28.331Z,96509.78
2022-10-15T03:22:30.138Z,96501.97
2022-10-15T03:27:33.391Z,96503.63
2022-10-15T03:32:36.322Z,96501.19
2022-10-15T03:37:40.320Z,96501.19
2022-10-15T03:42:44.460Z,96506.09
2022-10-15T03:47:46.933Z,96501.38
2022-10-15T03:52:48.734Z,96503.03
2022-10-15T03:57:50.558Z,96496.06
2022-10-15T04:02:53.240Z,96495.44
2022-10-15T04:08:00.502Z,96493.78
2022-10-15T04:13:05.201Z,96490.38
2022-10-15T04:18:08.865Z,96480.69
2022-10-15T04:23:11.948Z,96480.06
2022-10-15T04:28:17.386Z,96469.19
2022-10-15T04:33:20.933Z,96473.28
2022-10-15T04:38:28.565Z,96470.19
2022-10-15T04:43:36.633Z,96468.75
2022-10-15T04:48:43.316Z,96460.97
2022-10-15T04:53:48.148Z,96463.09
2022-10-15T04:58:51.007Z,96458.88
2022-10-15T05:03:53.012Z,96466.84
2022-10-15T05:08:54.833Z,96470.09
2022-10-15T05:14:03.762Z,96475.63
2022-10-15T05:19:08.334Z,96482.75
2022-10-15T05:24:12.659Z,96489.41
2022-10-15T05:29:29.216Z,96486.81
2022-10-15T05:34:31.384Z,96490.09
2022-10-15T05:39:37.240Z,96496.44
2022-10-15T05:44:39.125Z,96503.56
2022-10-15T05:49:40.888Z,96517.88
2022-10-15T05:54:48.690Z,96527.44
2022-10-15T05:59:50.615Z,96531.16
2022-10-15T06:04:53.381Z,96536.03
2022-10-15T06:09:54.987Z,96549.53
2022-10-15T06:14:58.990Z,96555.88
2022-10-15T06:20:00.678Z,96565.13
2022-10-15T06:25:02.362Z,96566.44
2022-10-15T06:30:04.783Z,96574.91
2022-10-15T06:35:07.091Z,96591.34
2022-10-15T06:40:11.300Z,96589.91
2022-10-15T06:45:19.478Z,96601.94
2022-10-15T06:50:23.457Z,96601.28
2022-10-15T06:55:25.289Z,96619.50
2022-10-15T07:00:27.892Z,96620.81
2022-10-15T07:05:29.555Z,96634.97
2022-10-15T07:10:31.250Z,96639.06
2022-10-15T07:15:33.913Z,96647.81
2022-10-15T07:20:35.594Z,96654.84
2022-10-15T07:25:37.428Z,96660.88
2022-10-15T07:30:39.186Z,96669.84
2022-10-15T07:35:40.950Z,96663.66
2022-10-15T07:40:42.615Z,96667.16
2022-10-15T07:45:48.061Z,96672.22
2022-10-15T07:51:01.860Z,96682.16
2022-10-15T07:56:07.826Z,96691.25
2022-10-15T08:01:11.058Z,96690.78
2022-10-15T08:06:12.929Z,96706.75
2022-10-15T08:11:16.451Z,96711.50
2022-10-15T08:16:20.178Z,96706.28
2022-10-15T08:21:32.414Z,96707.47
2022-10-15T08:26:34.893Z,96720.50
2022-10-15T08:31:36.706Z,96729.78
2022-10-15T08:36:38.389Z,96731.28
2022-10-15T08:41:40.315Z,96728.34
2022-10-15T08:46:48.989Z,96732.78
2022-10-15T08:51:55.190Z,96752.66
2022-10-15T08:57:15.373Z,96760.16
2022-10-15T09:02:25.632Z,96772.69
2022-10-15T09:07:37.411Z,96771.22
2022-10-15T09:13:00.598Z,96781.63
2022-10-15T09:18:02.455Z,96794.50
2022-10-15T09:23:17.172Z,96793.88
2022-10-15T09:28:25.434Z,96792.25
2022-10-15T09:33:45.223Z,96798.22
2022-10-15T09:39:09.865Z,96801.50
2022-10-15T09:44:15.239Z,96800.72
2022-10-15T09:49:26.344Z,96810.00
2022-10-15T09:54:38.264Z,96808.56
2022-10-15T09:59:52.922Z,96814.59
2022-10-15T10:04:55.298Z,96815.56
2022-10-15T10:10:01.954Z,96815.91
2022-10-15T10:15:22.620Z,96811.19
2022-10-15T10:20:32.291Z,96816.72
2022-10-15T10:25:42.487Z,96822.47
2022-10-15T10:30:56.119Z,96825.03
2022-10-15T10:35:59.674Z,96800.59
2022-10-15T10:41:08.565Z,96807.78
2022-10-15T10:46:22.701Z,96819.81
2022-10-15T10:51:27.680Z,96826.34
2022-10-15T10:56:42.576Z,96831.53
2022-10-15T11:01:45.140Z,96839.34
2022-10-15T11:07:00.707Z,96839.69
2022-10-15T11:12:08.299Z,96847.97
2022-10-15T11:17:36.471Z,96847.97
2022-10-15T11:23:02.091Z,96848.50
2022-10-15T11:28:15.624Z,96842.44
2022-10-15T11:33:35.150Z,96840.00
2022-10-15T11:38:53.590Z,96846.50
2022-10-15T11:44:28.784Z,96835.09
2022-10-15T11:49:56.882Z,96831.88
2022-10-15T11:55:13.867Z,96833.44
2022-10-15T12:00:31.288Z,96832.13
2022-10-15T12:05:41.902Z,96836.00
2022-10-15T12:10:55.126Z,96823.50
2022-10-15T12:16:15.397Z,96821.59
2022-10-15T12:21:42.834Z,96810.06
2022-10-15T12:26:44.571Z,96811.09
2022-10-15T12:31:56.396Z,96795.22
2022-10-15T12:37:06.505Z,96800.97
2022-10-15T12:42:23.606Z,96793.59
2022-10-15T12:47:51.423Z,96798.91
2022-10-15T12:53:22.923Z,96798.69
2022-10-15T12:58:38.705Z,96797.03
2022-10-15T13:03:50.062Z,96799.31
2022-10-15T13:08:56.967Z,96794.53
2022-10-15T13:14:15.256Z,96787.44
2022-10-15T13:19:23.786Z,96783.25
2022-10-15T13:24:30.567Z,96784.59
2022-10-15T13:29:32.321Z,96790.13
2022-10-15T13:34:36.564Z,96793.91
2022-10-15T13:39:41.754Z,96785.06
2022-10-15T13:44:56.698Z,96789.94
2022-10-15T13:50:21.896Z,96794.56
2022-10-15T13:55:29.760Z,96789.28
2022-10-15T14:00:34.798Z,96781.94
2022-10-15T14:05:36.809Z,96776.63
2022-10-15T14:10:38.474Z,96788.38
2022-10-15T14:15:46.413Z,96784.13
2022-10-15T14:20:49.264Z,96786.91
2022-10-15T14:25:56.766Z,96784.91
2022-10-15T14:30:58.993Z,96776.91
2022-10-15T14:36:23.198Z,96778.66
2022-10-15T14:41:30.489Z,96785.72
2022-10-15T14:46:51.134Z,96785.97
2022-10-15T14:52:11.770Z,96785.81
2022-10-15T14:57:24.539Z,96785.38
2022-10-15T15:02:28.722Z,96790.81
2022-10-15T15:07:30.601Z,96784.56
2022-10-15T15:12:33.615Z,96791.88
2022-10-15T15:17:35.602Z,96785.63
2022-10-15T15:22:38.238Z,96784.13
2022-10-15T15:27:40.015Z,96781.25
2022-10-15T15:32:41.885Z,96794.72
2022-10-15T15:37:43.617Z,96809.34
2022-10-15T15:42:46.062Z,96818.59
2022-10-15T15:47:48.088Z,96820.09
2022-10-15T15:52:49.931Z,96809.38
2022-10-15T15:57:51.608Z,96805.84
2022-10-15T16:02:55.565Z,96808.72
2022-10-15T16:07:59.753Z,96810.72
2022-10-15T16:13:02.667Z,96827.13
2022-10-15T16:18:04.801Z,96817.84
2022-10-15T16:23:06.748Z,96822.13
2022-10-15T16:28:08.802Z,96836.38
2022-10-15T16:33:10.595Z,96856.63
2022-10-15T16:38:12.219Z,96855.66
2022-10-15T16:43:14.153Z,96857.94
2022-10-15T16:48:15.837Z,96855.50
2022-10-15T16:53:17.508Z,96852.44
2022-10-15T16:58:19.242Z,96869.06
2022-10-15T17:03:20.930Z,96874.94
2022-10-15T17:08:23.913Z,96890.63
2022-10-15T17:13:27.208Z,96903.00
2022-10-15T17:18:28.948Z,96902.00
2022-10-15T17:23:31.371Z,96902.19
2022-10-15T17:28:33.538Z,96911.00
2022-10-15T17:33:36.795Z,96917.81
2022-10-15T17:38:38.792Z,96916.81
2022-10-15T17:43:40.954Z,96920.56
2022-10-15T17:48:43.511Z,96912.91
2022-10-15T17:53:46.082Z,96925.09
2022-10-15T17:58:48.612Z,96936.81
2022-10-15T18:03:53.134Z,96941.91
2022-10-15T18:08:55.779Z,96940.88
2022-10-15T18:13:57.667Z,96948.69
2022-10-15T18:18:59.474Z,96947.69
2022-10-15T18:24:01.284Z,96948.03
2022-10-15T18:29:02.897Z,96938.22
2022-10-15T18:34:04.703Z,96946.31
2022-10-15T18:39:06.399Z,96942.75
2022-10-15T18:44:14.776Z,96947.91
2022-10-15T18:49:19.179Z,96940.34
2022-10-15T18:54:21.951Z,96948.03
2022-10-15T18:59:23.611Z,96941.72
2022-10-15T19:04:28.515Z,96962.28
2022-10-15T19:09:31.449Z,96967.38
2022-10-15T19:14:33.162Z,96956.75
2022-10-15T19:19:35.364Z,96937.56
2022-10-15T19:24:37.162Z,96948.97
2022-10-15T19:29:39.574Z,96945.69
2022-10-15T19:34:41.584Z,96946.50
2022-10-15T19:39:48.082Z,96964.72
2022-10-15T19:44:49.753Z,96986.88
2022-10-15T19:49:52.220Z,96981.84
2022-10-15T19:54:53.907Z,96981.34
2022-10-15T19:59:55.580Z,96982.97
2022-10-15T20:04:57.217Z,96990.47
2022-10-15T20:09:58.866Z,96997.28
2022-10-15T20:15:00.780Z,96999.03
2022-10-15T20:20:02.418Z,97002.44
2022-10-15T20:25:04.433Z,97008.13
2022-10-15T20:30:06.661Z,97016.75
2022-10-15T20:35:08.960Z,97029.44
2022-10-15T20:40:10.790Z,97035.50
2022-10-15T20:45:14.582Z,97037.63
2022-10-15T20:50:22.535Z,97037.63
2022-10-15T20:55:25.463Z,97047.06
2022-10-15T21:00:27.216Z,97036.44
2022-10-15T21:05:28.826Z,97046.69
2022-10-15T21:10:30.481Z,97052.53
2022-10-15T21:15:32.441Z,97064.75
2022-10-15T21:20:34.157Z,97069.47
2022-10-15T21:25:35.838Z,97057.75
2022-10-15T21:30:40.770Z,97072.75
2022-10-15T21:35:42.449Z,97088.63
2022-10-15T21:40:45.095Z,97077.41
2022-10-15T21:45:46.887Z,97070.94
2022-10-15T21:50:49.082Z,97084.38
2022-10-15T21:55:55.428Z,97083.28
2022-10-15T22:00:57.310Z,97090.53
2022-10-15T22:05:59.210Z,97099.09
2022-10-15T22:11:20.491Z,97109.16
2022-10-15T22:16:23.663Z,97117.50
2022-10-15T22:21:30.995Z,97116.69
2022-10-15T22:26:36.108Z,97117.84
2022-10-15T22:31:37.820Z,97122.75
2022-10-15T22:36:39.591Z,97122.75
2022-10-15T22:41:44.010Z,97127.53
2022-10-15T22:46:46.278Z,97123.31
2022-10-15T22:51:49.569Z,97120.84
2022-10-15T22:56:51.627Z,97112.53
2022-10-15T23:01:53.281Z,97118.91
2022-10-15T23:06:54.972Z,97126.41
2022-10-15T23:11:56.602Z,97128.66
2022-10-15T23:16:58.271Z,97132.13
2022-10-15T23:22:02.574Z,97139.69
2022-10-15T23:27:04.310Z,97121.78
2022-10-15T23:32:06.177Z,97122.75
2022-10-15T23:37:07.854Z,97113.38
2022-10-15T23:42:09.547Z,97114.38
2022-10-15T23:47:11.391Z,97103.00
2022-10-15T23:52:13.064Z,97120.16
2022-10-15T23:57:14.792Z,97125.09
